Tims Ford Observed Data For Previous 48 Hours

Caption
Day and Hour Reservoir Elevation (behind dam)* Tailwater Elevation (below dam)* Average Hourly Discharge*
12/16/2017 1 AM CST 875.05 744.36 371
12/16/2017 2 AM CST 875.07 743.70 240
12/16/2017 3 AM CST 875.08 743.63 240
12/16/2017 4 AM CST 875.06 743.62 240
12/16/2017 5 AM CST 875.06 743.62 240
12/16/2017 6 AM CST 875.08 743.61 240
12/16/2017 7 AM CST 875.08 743.62 240
12/16/2017 8 AM CST 875.07 743.62 240
12/16/2017 9 AM CST 875.06 743.61 240
12/16/2017 10 AM CST 875.08 743.63 240
12/16/2017 11 AM CST 875.07 743.64 240
12/16/2017 12 PM CST 875.07 743.63 240
12/16/2017 1 PM CST 875.07 743.63 240
12/16/2017 2 PM CST 875.06 743.62 240
12/16/2017 3 PM CST 875.07 743.62 240
12/16/2017 4 PM CST 875.06 743.62 240
12/16/2017 5 PM CST 875.07 743.63 240
12/16/2017 6 PM CST 875.07 743.62 240
12/16/2017 7 PM CST 875.07 743.62 240
12/16/2017 8 PM CST 875.07 743.61 240
12/16/2017 9 PM CST 875.06 743.62 240
12/16/2017 10 PM CST 875.07 743.62 240
12/16/2017 11 PM CST 875.07 743.60 240
12/17/2017 12 AM CST 875.06 743.62 240
12/17/2017 1 AM CST 875.06 743.62 240
12/17/2017 2 AM CST 875.08 743.62 240
12/17/2017 3 AM CST 875.06 743.61 240
12/17/2017 4 AM CST 875.07 743.61 240
12/17/2017 5 AM CST 875.06 743.61 240
12/17/2017 6 AM CST 875.06 743.63 240
12/17/2017 7 AM CST 875.07 743.62 240
12/17/2017 8 AM CST 875.06 743.61 240
12/17/2017 9 AM CST 875.07 743.62 240
12/17/2017 10 AM CST 875.06 743.61 240
12/17/2017 11 AM CST 875.05 743.61 240
12/17/2017 12 PM CST 875.08 743.61 240
12/17/2017 1 PM CST 875.08 743.62 240
12/17/2017 2 PM CST 875.07 743.62 240
12/17/2017 3 PM CST 875.07 743.60 240
12/17/2017 4 PM CST 875.08 743.62 240
12/17/2017 5 PM CST 875.07 743.63 240
12/17/2017 6 PM CST 875.05 743.61 240
12/17/2017 7 PM CST 875.07 743.62 240
12/17/2017 8 PM CST 875.07 743.61 240
12/17/2017 9 PM CST 875.06 743.61 240
12/17/2017 10 PM CST 875.07 743.62 240
12/17/2017 11 PM CST 875.08 743.61 240
12/18/2017 12 AM CST 875.08 743.61 240
12/18/2017 1 AM CST 875.08 743.61 240
12/18/2017 2 AM CST 875.09 743.62 240
12/18/2017 3 AM CST 875.08 743.61 240
12/18/2017 4 AM CST 875.08 743.62 240
12/18/2017 5 AM CST 875.08 743.61 240
12/18/2017 6 AM CST 875.08 743.79 240
12/18/2017 7 AM CST 875.06 749.79 3,582
12/18/2017 8 AM CST 875.02 749.90 3,827
12/18/2017 9 AM CST 874.98 749.94 3,838
12/18/2017 10 AM CST 874.96 749.96 3,832
12/18/2017 11 AM CST 874.92 749.96 3,840
12/18/2017 12 PM CST 874.90 750.02 3,833
12/18/2017 1 PM CST 874.88 744.35 376
12/18/2017 2 PM CST 874.90 743.69 240

Elevations are in feet above sea level. Discharges are in cubic feet per second and are reported at the end of the hour.